createdAt,value
2018-04-11T00:00:44.544Z,87.74
2018-04-11T00:01:44.575Z,87.65
2018-04-11T00:02:44.604Z,88.03
2018-04-11T00:03:44.607Z,88.31
2018-04-11T00:04:44.628Z,88.12
2018-04-11T00:05:44.646Z,87.74
2018-04-11T00:06:44.688Z,86.45
2018-04-11T00:07:44.706Z,86.16
2018-04-11T00:08:44.724Z,86.32
2018-04-11T00:09:44.778Z,86.07
2018-04-11T00:10:44.755Z,85.88
2018-04-11T00:11:44.760Z,85.50
2018-04-11T00:12:44.814Z,85.31
2018-04-11T00:13:44.804Z,85.12
2018-04-11T00:14:44.837Z,84.83
2018-04-11T00:15:44.877Z,84.26
2018-04-11T00:16:44.863Z,84.83
2018-04-11T00:17:44.897Z,85.31
2018-04-11T00:18:44.900Z,84.88
2018-04-11T00:19:44.921Z,86.60
2018-04-11T00:20:44.944Z,86.79
2018-04-11T00:21:44.960Z,85.88
2018-04-11T00:22:44.973Z,85.31
2018-04-11T00:23:45.006Z,85.41
2018-04-11T00:24:45.018Z,84.83
2018-04-11T00:25:45.040Z,84.36
2018-04-11T00:26:45.058Z,84.36
2018-04-11T00:27:45.076Z,85.36
2018-04-11T00:28:45.106Z,86.03
2018-04-11T00:29:45.114Z,85.17
2018-04-11T00:30:45.189Z,86.51
2018-04-11T00:31:45.152Z,86.32
2018-04-11T00:32:45.171Z,87.23
2018-04-11T00:33:45.186Z,87.79
2018-04-11T00:34:45.207Z,87.46
2018-04-11T00:35:45.223Z,87.07
2018-04-11T00:36:45.240Z,86.98
2018-04-11T00:37:45.269Z,87.89
2018-04-11T00:38:45.299Z,88.46
2018-04-11T00:39:45.300Z,87.89
2018-04-11T00:40:45.319Z,88.08
2018-04-11T00:41:45.337Z,88.27
2018-04-11T00:42:45.376Z,88.37
2018-04-11T00:43:45.373Z,88.75
2018-04-11T00:44:45.400Z,89.22
2018-04-11T00:45:45.422Z,89.13
2018-04-11T00:46:45.435Z,88.84
2018-04-11T00:47:45.453Z,87.98
2018-04-11T00:48:45.473Z,88.46
2018-04-11T00:49:45.494Z,88.37
2018-04-11T00:50:45.509Z,87.46
2018-04-11T00:51:45.532Z,86.84
2018-04-11T00:52:45.553Z,86.98
2018-04-11T00:53:45.588Z,86.69
2018-04-11T00:54:45.595Z,85.93
2018-04-11T00:55:45.606Z,85.74
2018-04-11T00:56:45.627Z,86.12
2018-04-11T00:57:45.645Z,86.51
2018-04-11T00:58:45.665Z,86.32
2018-04-11T00:59:45.680Z,86.36
2018-04-11T01:00:45.702Z,87.79
2018-04-11T01:01:45.719Z,88.93
2018-04-11T01:02:45.741Z,88.84
2018-04-11T01:03:45.773Z,89.56
2018-04-11T01:04:45.779Z,90.22
2018-04-11T01:05:45.796Z,90.42
2018-04-11T01:06:45.816Z,90.89
2018-04-11T01:07:45.836Z,90.32
2018-04-11T01:08:45.847Z,89.79
2018-04-11T01:09:45.872Z,88.65
2018-04-11T01:10:45.890Z,87.89
2018-04-11T01:11:45.911Z,86.65
2018-04-11T01:12:45.930Z,86.65
2018-04-11T01:13:45.948Z,85.89
2018-04-11T01:14:45.965Z,86.51
2018-04-11T01:15:45.985Z,85.89
2018-04-11T01:16:46.008Z,87.32
2018-04-11T01:17:46.030Z,88.60
2018-04-11T01:18:46.039Z,89.56
2018-04-11T01:19:46.071Z,89.47
2018-04-11T01:20:46.082Z,89.32
2018-04-11T01:21:46.097Z,87.98
2018-04-11T01:22:46.121Z,87.60
2018-04-11T01:23:46.139Z,86.36
2018-04-11T01:24:46.160Z,86.18
2018-04-11T01:25:46.176Z,86.51
2018-04-11T01:26:46.196Z,86.46
2018-04-11T01:27:46.210Z,86.99
2018-04-11T01:28:46.234Z,89.47
2018-04-11T01:29:46.257Z,88.84
2018-04-11T01:30:46.277Z,87.60
2018-04-11T01:31:46.301Z,86.46
2018-04-11T01:32:46.310Z,86.46
2018-04-11T01:33:46.331Z,85.80
2018-04-11T01:34:46.345Z,86.46
2018-04-11T01:35:46.360Z,87.03
2018-04-11T01:36:46.382Z,87.60
2018-04-11T01:37:46.397Z,87.13
2018-04-11T01:38:46.425Z,85.80
2018-04-11T01:39:46.437Z,86.46
2018-04-11T01:40:46.456Z,85.99
2018-04-11T01:41:46.476Z,85.60
2018-04-11T01:42:46.499Z,85.89
2018-04-11T01:43:46.512Z,85.80
2018-04-11T01:44:46.531Z,85.13
2018-04-11T01:45:46.550Z,85.32
2018-04-11T01:46:46.571Z,85.13
2018-04-11T01:47:46.589Z,85.32
2018-04-11T01:48:46.606Z,85.41
2018-04-11T01:49:46.627Z,86.32
2018-04-11T01:50:46.646Z,88.23
2018-04-11T01:51:46.669Z,87.37
2018-04-11T01:52:46.681Z,86.36
2018-04-11T01:53:46.700Z,86.65
2018-04-11T01:54:46.717Z,86.32
2018-04-11T01:55:46.738Z,87.08
2018-04-11T01:56:46.785Z,86.99
2018-04-11T01:57:46.804Z,85.75
2018-04-11T01:58:46.829Z,86.27
2018-04-11T01:59:46.821Z,86.42
2018-04-11T02:00:46.829Z,87.85
2018-04-11T02:01:46.846Z,86.61
2018-04-11T02:02:46.868Z,86.42
2018-04-11T02:03:46.891Z,85.60
2018-04-11T02:04:46.910Z,85.85
2018-04-11T02:05:46.935Z,85.41
2018-04-11T02:06:46.952Z,85.03
2018-04-11T02:07:46.969Z,85.41
2018-04-11T02:08:46.983Z,85.13
2018-04-11T02:09:47.003Z,85.66
2018-04-11T02:10:47.022Z,85.85
2018-04-11T02:11:47.036Z,86.32
2018-04-11T02:12:47.055Z,86.70
2018-04-11T02:13:47.073Z,87.56
2018-04-11T02:14:47.095Z,88.18
2018-04-11T02:15:47.114Z,87.99
2018-04-11T02:16:47.128Z,87.56
2018-04-11T02:17:47.149Z,86.32
2018-04-11T02:18:47.179Z,86.22
2018-04-11T02:19:47.185Z,85.75
2018-04-11T02:20:47.242Z,85.56
2018-04-11T02:21:47.223Z,86.32
2018-04-11T02:22:47.243Z,87.61
2018-04-11T02:23:47.258Z,87.56
2018-04-11T02:24:47.292Z,87.85
2018-04-11T02:25:47.291Z,88.37
2018-04-11T02:26:47.316Z,88.23
2018-04-11T02:27:47.327Z,87.90
2018-04-11T02:28:47.349Z,88.18
2018-04-11T02:29:47.381Z,87.99
2018-04-11T02:30:47.389Z,88.09
2018-04-11T02:31:47.412Z,88.94
2018-04-11T02:32:47.430Z,88.56
2018-04-11T02:33:47.444Z,89.14
2018-04-11T02:34:47.466Z,89.51
2018-04-11T02:35:47.481Z,89.70
2018-04-11T02:36:47.518Z,90.28
2018-04-11T02:37:47.522Z,89.70
2018-04-11T02:38:47.560Z,90.08
2018-04-11T02:39:47.552Z,90.56
2018-04-11T02:40:47.573Z,89.89
2018-04-11T02:41:47.592Z,90.37
2018-04-11T02:42:47.615Z,89.51
2018-04-11T02:43:47.630Z,89.14
2018-04-11T02:44:47.698Z,89.23
2018-04-11T02:45:47.667Z,89.23
2018-04-11T02:46:47.683Z,89.80
2018-04-11T02:47:47.704Z,89.32
2018-04-11T02:48:47.717Z,89.32
2018-04-11T02:49:47.740Z,88.56
2018-04-11T02:50:47.758Z,89.04
2018-04-11T02:51:47.780Z,88.94
2018-04-11T02:52:47.793Z,89.23
2018-04-11T02:53:47.813Z,89.23
2018-04-11T02:54:47.869Z,89.14
2018-04-11T02:55:47.851Z,88.70
2018-04-11T02:56:47.867Z,87.08
2018-04-11T02:57:47.883Z,88.46
2018-04-11T02:58:47.901Z,89.14
2018-04-11T02:59:47.926Z,89.14
2018-04-11T03:00:47.943Z,88.94
2018-04-11T03:01:47.958Z,89.47
2018-04-11T03:02:47.977Z,89.51
2018-04-11T03:03:47.999Z,88.85
2018-04-11T03:04:48.013Z,88.46
2018-04-11T03:05:48.035Z,88.66
2018-04-11T03:06:48.053Z,88.56
2018-04-11T03:07:48.070Z,88.85
2018-04-11T03:08:48.083Z,88.56
2018-04-11T03:09:48.105Z,88.56
2018-04-11T03:10:48.123Z,87.80
2018-04-11T03:11:48.146Z,87.13
2018-04-11T03:12:48.169Z,87.71
2018-04-11T03:13:48.178Z,87.13
2018-04-11T03:14:48.200Z,86.94
2018-04-11T03:15:48.207Z,88.46
2018-04-11T03:16:48.232Z,87.90
2018-04-11T03:17:48.250Z,88.80
2018-04-11T03:18:48.269Z,89.66
2018-04-11T03:19:48.289Z,89.32
2018-04-11T03:20:48.310Z,88.85
2018-04-11T03:21:48.391Z,89.00
2018-04-11T03:22:48.347Z,88.94
2018-04-11T03:23:48.374Z,88.61
2018-04-11T03:24:48.377Z,90.04
2018-04-11T03:25:48.405Z,90.14
2018-04-11T03:26:48.413Z,90.14
2018-04-11T03:27:48.429Z,90.61
2018-04-11T03:28:48.448Z,90.89
2018-04-11T03:29:48.468Z,90.89
2018-04-11T03:30:48.495Z,90.70
2018-04-11T03:31:48.504Z,90.23
2018-04-11T03:32:48.521Z,90.80
2018-04-11T03:33:48.550Z,90.23
2018-04-11T03:34:48.557Z,89.56
2018-04-11T03:35:48.579Z,89.56
2018-04-11T03:36:48.592Z,89.56
2018-04-11T03:37:48.612Z,89.85
2018-04-11T03:38:48.629Z,89.18
2018-04-11T03:39:48.652Z,89.18
2018-04-11T03:40:48.673Z,89.28
2018-04-11T03:41:48.685Z,88.66
2018-04-11T03:42:48.708Z,88.80
2018-04-11T03:43:48.731Z,88.42
2018-04-11T03:44:48.744Z,88.71
2018-04-11T03:45:48.755Z,88.52
2018-04-11T03:46:48.777Z,88.52
2018-04-11T03:47:48.794Z,88.13
2018-04-11T03:48:48.817Z,88.80
2018-04-11T03:49:48.829Z,88.52
2018-04-11T03:50:48.848Z,88.61
2018-04-11T03:51:48.867Z,89.28
2018-04-11T03:52:48.883Z,88.71
2018-04-11T03:53:48.907Z,89.18
2018-04-11T03:54:48.965Z,88.71
2018-04-11T03:55:48.934Z,88.52
2018-04-11T03:56:48.952Z,88.52
2018-04-11T03:57:48.977Z,88.80
2018-04-11T03:58:48.995Z,89.00
2018-04-11T03:59:49.008Z,89.47
2018-04-11T04:00:49.039Z,88.80
2018-04-11T04:01:49.051Z,88.61
2018-04-11T04:02:49.058Z,88.42
2018-04-11T04:03:49.081Z,88.52
2018-04-11T04:04:49.099Z,89.52
2018-04-11T04:05:49.124Z,89.66
2018-04-11T04:06:49.134Z,88.61
2018-04-11T04:07:49.208Z,88.33
2018-04-11T04:08:49.184Z,87.32
2018-04-11T04:09:49.190Z,86.52
2018-04-11T04:10:49.208Z,87.66
2018-04-11T04:11:49.239Z,88.61
2018-04-11T04:12:49.250Z,87.95
2018-04-11T04:13:49.293Z,88.13
2018-04-11T04:14:49.282Z,88.23
2018-04-11T04:15:49.296Z,88.71
2018-04-11T04:16:49.317Z,88.42
2018-04-11T04:17:49.333Z,88.61
2018-04-11T04:18:49.349Z,88.04
2018-04-11T04:19:49.404Z,88.04
2018-04-11T04:20:49.388Z,88.33
2018-04-11T04:21:49.402Z,88.23
2018-04-11T04:22:49.424Z,87.38
2018-04-11T04:23:49.440Z,87.57
2018-04-11T04:24:49.456Z,87.47
2018-04-11T04:25:49.479Z,87.19
2018-04-11T04:26:49.504Z,87.38
2018-04-11T04:27:49.515Z,87.66
2018-04-11T04:28:49.533Z,88.52
2018-04-11T04:29:49.548Z,89.04
2018-04-11T04:30:49.571Z,89.14
2018-04-11T04:31:49.589Z,88.76
2018-04-11T04:32:49.598Z,88.71
2018-04-11T04:33:49.641Z,88.13
2018-04-11T04:34:49.648Z,87.76
2018-04-11T04:35:49.654Z,88.76
2018-04-11T04:36:49.670Z,88.85
2018-04-11T04:37:49.691Z,89.14
2018-04-11T04:38:49.708Z,89.04
2018-04-11T04:39:49.723Z,88.67
2018-04-11T04:40:49.745Z,88.13
2018-04-11T04:41:49.764Z,88.13
2018-04-11T04:42:49.777Z,87.85
2018-04-11T04:43:49.800Z,86.80
2018-04-11T04:44:49.822Z,86.24
2018-04-11T04:45:49.827Z,86.14
2018-04-11T04:46:49.850Z,86.71
2018-04-11T04:47:49.862Z,87.28
2018-04-11T04:48:49.885Z,87.76
2018-04-11T04:49:49.905Z,87.47
2018-04-11T04:50:49.921Z,87.19
2018-04-11T04:51:49.937Z,86.61
2018-04-11T04:52:49.957Z,85.95
2018-04-11T04:53:49.975Z,85.95
2018-04-11T04:54:49.987Z,86.52
2018-04-11T04:55:50.011Z,86.90
2018-04-11T04:56:50.035Z,85.95
2018-04-11T04:57:50.045Z,85.95
2018-04-11T04:58:50.061Z,86.99
2018-04-11T04:59:50.080Z,87.24
2018-04-11T05:00:50.095Z,87.81
2018-04-11T05:01:50.115Z,88.38
2018-04-11T05:02:50.144Z,87.76
2018-04-11T05:03:50.161Z,87.28
2018-04-11T05:04:50.171Z,87.47
2018-04-11T05:05:50.187Z,86.24
2018-04-11T05:06:50.208Z,86.14
2018-04-11T05:07:50.231Z,86.33
2018-04-11T05:08:50.239Z,85.95
2018-04-11T05:09:50.260Z,86.14
2018-04-11T05:10:50.287Z,87.09
2018-04-11T05:11:50.322Z,87.09
2018-04-11T05:12:50.323Z,86.80
2018-04-11T05:13:50.326Z,86.14
2018-04-11T05:14:50.342Z,86.24
2018-04-11T05:15:50.364Z,86.61
2018-04-11T05:16:50.383Z,86.24
2018-04-11T05:17:50.414Z,86.80
2018-04-11T05:18:50.414Z,87.34
2018-04-11T05:19:50.438Z,88.09
2018-04-11T05:20:50.464Z,88.61
2018-04-11T05:21:50.482Z,88.38
2018-04-11T05:22:50.493Z,88.33
2018-04-11T05:23:50.530Z,88.13
2018-04-11T05:24:50.519Z,87.28
2018-04-11T05:25:50.544Z,87.66
2018-04-11T05:26:50.574Z,86.80
2018-04-11T05:27:50.577Z,86.80
2018-04-11T05:28:50.595Z,87.66
2018-04-11T05:29:50.617Z,86.24
2018-04-11T05:30:50.633Z,85.52
2018-04-11T05:31:50.654Z,85.80
2018-04-11T05:32:50.662Z,85.38
2018-04-11T05:33:50.677Z,85.57
2018-04-11T05:34:50.701Z,85.47
2018-04-11T05:35:50.719Z,86.24
2018-04-11T05:36:50.738Z,86.24
2018-04-11T05:37:50.753Z,86.14
2018-04-11T05:38:50.770Z,86.61
2018-04-11T05:39:50.790Z,87.19
2018-04-11T05:40:50.819Z,87.19
2018-04-11T05:41:50.824Z,86.52
2018-04-11T05:42:50.842Z,87.38
2018-04-11T05:43:50.856Z,87.85
2018-04-11T05:44:50.883Z,87.19
2018-04-11T05:45:50.920Z,86.99
2018-04-11T05:46:50.916Z,86.61
2018-04-11T05:47:50.931Z,87.19
2018-04-11T05:48:50.960Z,87.76
2018-04-11T05:49:50.993Z,87.57
2018-04-11T05:50:50.992Z,86.24
2018-04-11T05:51:51.002Z,86.14
2018-04-11T05:52:51.014Z,85.71
2018-04-11T05:53:51.047Z,84.66
2018-04-11T05:54:51.055Z,83.62
2018-04-11T05:55:51.074Z,83.09
2018-04-11T05:56:51.093Z,82.80
2018-04-11T05:57:51.112Z,82.99
2018-04-11T05:58:51.208Z,82.70
2018-04-11T05:59:51.161Z,82.99
2018-04-11T06:00:51.177Z,83.37
2018-04-11T06:01:51.175Z,83.04
2018-04-11T06:02:51.210Z,84.56
2018-04-11T06:03:51.215Z,85.71
2018-04-11T06:04:51.231Z,85.99
2018-04-11T06:05:51.260Z,86.09
2018-04-11T06:06:51.272Z,86.38
2018-04-11T06:07:51.290Z,86.18
2018-04-11T06:08:51.311Z,85.90
2018-04-11T06:09:51.331Z,86.38
2018-04-11T06:10:51.340Z,86.09
2018-04-11T06:11:51.356Z,86.80
2018-04-11T06:12:51.383Z,87.23
2018-04-11T06:13:51.406Z,86.85
2018-04-11T06:14:51.417Z,86.28
2018-04-11T06:15:51.433Z,86.38
2018-04-11T06:16:51.457Z,85.71
2018-04-11T06:17:51.467Z,86.09
2018-04-11T06:18:51.507Z,85.52
2018-04-11T06:19:51.515Z,85.90
2018-04-11T06:20:51.558Z,85.71
2018-04-11T06:21:51.549Z,85.42
2018-04-11T06:22:51.607Z,85.37
2018-04-11T06:23:51.577Z,85.80
2018-04-11T06:24:51.631Z,86.38
2018-04-11T06:25:51.614Z,86.42
2018-04-11T06:26:51.646Z,85.75
2018-04-11T06:27:51.652Z,84.80
2018-04-11T06:28:51.664Z,85.18
2018-04-11T06:29:51.690Z,84.99
2018-04-11T06:30:51.702Z,84.23
2018-04-11T06:31:51.725Z,84.42
2018-04-11T06:32:51.748Z,84.52
2018-04-11T06:33:51.803Z,84.80
2018-04-11T06:34:51.782Z,84.89
2018-04-11T06:35:51.811Z,85.28
2018-04-11T06:36:51.811Z,84.89
2018-04-11T06:37:51.844Z,85.37
2018-04-11T06:38:51.924Z,85.56
2018-04-11T06:39:51.873Z,85.28
2018-04-11T06:40:51.882Z,85.66
2018-04-11T06:41:51.912Z,85.75
2018-04-11T06:42:51.924Z,85.28
2018-04-11T06:43:51.945Z,85.18
2018-04-11T06:44:51.964Z,84.61
2018-04-11T06:45:51.977Z,84.99
2018-04-11T06:46:51.997Z,85.85
2018-04-11T06:47:52.021Z,85.75
2018-04-11T06:48:52.030Z,85.94
2018-04-11T06:49:52.050Z,85.41
2018-04-11T06:50:52.072Z,84.99
2018-04-11T06:51:52.092Z,84.56
2018-04-11T06:52:52.110Z,84.17
2018-04-11T06:53:52.128Z,83.70
2018-04-11T06:54:52.141Z,83.80
2018-04-11T06:55:52.165Z,83.51
2018-04-11T06:56:52.186Z,83.47
2018-04-11T06:57:52.197Z,83.80
2018-04-11T06:58:52.227Z,83.13
2018-04-11T06:59:52.241Z,83.13
2018-04-11T07:00:52.264Z,83.32
2018-04-11T07:01:52.272Z,83.32
2018-04-11T07:02:52.293Z,82.84
2018-04-11T07:03:52.317Z,81.79
2018-04-11T07:04:52.334Z,82.12
2018-04-11T07:05:52.355Z,81.84
2018-04-11T07:06:52.373Z,82.03
2018-04-11T07:07:52.444Z,81.46
2018-04-11T07:08:52.411Z,80.98
2018-04-11T07:09:52.426Z,80.69
2018-04-11T07:10:52.454Z,80.50
2018-04-11T07:11:52.463Z,79.22
2018-04-11T07:12:52.479Z,79.32
2018-04-11T07:13:52.508Z,79.55
2018-04-11T07:14:52.523Z,78.69
2018-04-11T07:15:52.539Z,78.78
2018-04-11T07:16:52.568Z,78.88
2018-04-11T07:17:52.583Z,78.98
2018-04-11T07:18:52.596Z,78.78
2018-04-11T07:19:52.635Z,78.50
2018-04-11T07:20:52.633Z,78.69
2018-04-11T07:21:52.665Z,78.69
2018-04-11T07:22:52.680Z,78.12
2018-04-11T07:23:52.695Z,78.54
2018-04-11T07:24:52.712Z,77.78
2018-04-11T07:25:52.739Z,78.06
2018-04-11T07:26:52.758Z,78.35
2018-04-11T07:27:52.769Z,78.92
2018-04-11T07:28:52.788Z,78.25
2018-04-11T07:29:52.808Z,78.83
2018-04-11T07:30:52.829Z,78.73
2018-04-11T07:31:52.851Z,78.73
2018-04-11T07:32:52.871Z,78.92
2018-04-11T07:33:52.886Z,78.49
2018-04-11T07:34:52.904Z,78.96
2018-04-11T07:35:52.922Z,77.82
2018-04-11T07:36:52.941Z,77.62
2018-04-11T07:37:52.962Z,77.62
2018-04-11T07:38:52.981Z,77.06
2018-04-11T07:39:53.001Z,77.34
2018-04-11T07:40:53.020Z,77.25
2018-04-11T07:41:53.035Z,77.72
2018-04-11T07:42:53.059Z,78.01
2018-04-11T07:43:53.081Z,77.53
2018-04-11T07:44:53.099Z,78.10
2018-04-11T07:45:53.114Z,77.91
2018-04-11T07:46:53.140Z,78.06
2018-04-11T07:47:53.161Z,78.73
2018-04-11T07:48:53.180Z,78.25
2018-04-11T07:49:53.196Z,77.87
2018-04-11T07:50:53.217Z,77.34
2018-04-11T07:51:53.236Z,77.06
2018-04-11T07:52:53.259Z,76.86
2018-04-11T07:53:53.276Z,76.86
2018-04-11T07:54:53.293Z,76.86
2018-04-11T07:55:53.318Z,77.15
2018-04-11T07:56:53.338Z,77.15
2018-04-11T07:57:53.355Z,76.86
2018-04-11T07:58:53.380Z,76.29
2018-04-11T07:59:53.399Z,76.48
2018-04-11T08:00:53.417Z,76.86
2018-04-11T08:01:53.435Z,76.57
2018-04-11T08:02:53.521Z,76.29
2018-04-11T08:03:53.479Z,76.20
2018-04-11T08:04:53.496Z,76.01
2018-04-11T08:05:53.519Z,76.29
2018-04-11T08:06:53.536Z,76.67
2018-04-11T08:07:53.558Z,76.77
2018-04-11T08:08:53.573Z,76.77
2018-04-11T08:09:53.598Z,76.77
2018-04-11T08:10:53.614Z,76.29
2018-04-11T08:11:53.639Z,76.96
2018-04-11T08:12:53.652Z,76.86
2018-04-11T08:13:53.675Z,76.62
2018-04-11T08:14:53.706Z,76.77
2018-04-11T08:15:53.711Z,76.10
2018-04-11T08:16:53.736Z,76.20
2018-04-11T08:17:53.774Z,76.20
2018-04-11T08:18:53.806Z,75.95
2018-04-11T08:19:53.799Z,76.39
2018-04-11T08:20:53.820Z,76.48
2018-04-11T08:21:53.833Z,75.95
2018-04-11T08:22:53.850Z,75.76
2018-04-11T08:23:53.877Z,75.47
2018-04-11T08:24:53.897Z,75.09
2018-04-11T08:25:53.920Z,74.99
2018-04-11T08:26:53.957Z,75.37
2018-04-11T08:27:53.960Z,75.18
2018-04-11T08:28:53.986Z,75.37
2018-04-11T08:29:54.020Z,75.37
2018-04-11T08:30:54.017Z,74.84
2018-04-11T08:31:54.042Z,74.46
2018-04-11T08:32:54.061Z,74.17
2018-04-11T08:33:54.078Z,74.42
2018-04-11T08:34:54.103Z,74.42
2018-04-11T08:35:54.127Z,74.13
2018-04-11T08:36:54.140Z,74.32
2018-04-11T08:37:54.168Z,73.66
2018-04-11T08:38:54.188Z,73.47
2018-04-11T08:39:54.209Z,73.37
2018-04-11T08:40:54.219Z,72.51
2018-04-11T08:41:54.241Z,72.32
2018-04-11T08:42:54.266Z,72.89
2018-04-11T08:43:54.283Z,73.18
2018-04-11T08:44:54.312Z,72.71
2018-04-11T08:45:54.322Z,72.80
2018-04-11T08:46:54.341Z,72.51
2018-04-11T08:47:54.365Z,72.83
2018-04-11T08:48:54.387Z,72.93
2018-04-11T08:49:54.408Z,72.36
2018-04-11T08:50:54.424Z,71.69
2018-04-11T08:51:54.451Z,71.31
2018-04-11T08:52:54.465Z,71.69
2018-04-11T08:53:54.482Z,71.15
2018-04-11T08:54:54.508Z,71.59
2018-04-11T08:55:54.528Z,72.11
2018-04-11T08:56:54.552Z,71.63
2018-04-11T08:57:54.569Z,71.63
2018-04-11T08:58:54.590Z,71.06
2018-04-11T08:59:54.617Z,70.73
2018-04-11T09:00:54.630Z,70.45
2018-04-11T09:01:54.654Z,70.83
2018-04-11T09:02:54.678Z,71.41
2018-04-11T09:03:54.719Z,71.12
2018-04-11T09:04:54.715Z,70.92
2018-04-11T09:05:54.736Z,70.83
2018-04-11T09:06:54.785Z,71.25
2018-04-11T09:07:54.777Z,70.58
2018-04-11T09:08:54.793Z,69.91
2018-04-11T09:09:54.820Z,69.91
2018-04-11T09:10:54.837Z,69.82
2018-04-11T09:11:54.863Z,69.82
2018-04-11T09:12:54.881Z,70.10
2018-04-11T09:13:54.901Z,70.01
2018-04-11T09:14:54.920Z,70.01
2018-04-11T09:15:54.949Z,69.47
2018-04-11T09:16:54.968Z,69.47
2018-04-11T09:17:54.985Z,69.62
2018-04-11T09:18:55.006Z,68.32
2018-04-11T09:19:55.026Z,67.94
2018-04-11T09:20:55.047Z,68.70
2018-04-11T09:21:55.070Z,68.23
2018-04-11T09:22:55.092Z,67.84
2018-04-11T09:23:55.110Z,68.51
2018-04-11T09:24:55.131Z,67.84
2018-04-11T09:25:55.154Z,67.65
2018-04-11T09:26:55.221Z,68.90
2018-04-11T09:27:55.196Z,68.51
2018-04-11T09:28:55.218Z,67.94
2018-04-11T09:29:55.234Z,68.23
2018-04-11T09:30:55.256Z,68.51
2018-04-11T09:31:55.334Z,66.13
2018-04-11T09:32:55.327Z,65.55
2018-04-11T09:33:55.325Z,65.36
2018-04-11T09:34:55.342Z,65.55
2018-04-11T09:35:55.361Z,67.08
2018-04-11T09:36:55.379Z,67.78
2018-04-11T09:37:55.412Z,67.40
2018-04-11T09:38:55.421Z,67.49
2018-04-11T09:39:55.472Z,67.21
2018-04-11T09:40:55.471Z,66.73
2018-04-11T09:41:55.518Z,66.06
2018-04-11T09:42:55.514Z,66.54
2018-04-11T09:43:55.534Z,66.06
2018-04-11T09:44:55.559Z,65.77
2018-04-11T09:45:55.581Z,66.16
2018-04-11T09:46:55.599Z,65.58
2018-04-11T09:47:55.615Z,65.77
2018-04-11T09:48:55.645Z,64.15
2018-04-11T09:49:55.668Z,63.76
2018-04-11T09:50:55.685Z,64.05
2018-04-11T09:51:55.734Z,64.53
2018-04-11T09:52:55.751Z,63.96
2018-04-11T09:53:55.745Z,64.43
2018-04-11T09:54:55.766Z,64.53
2018-04-11T09:55:55.799Z,65.01
2018-04-11T09:56:55.810Z,65.48
2018-04-11T09:57:55.833Z,65.58
2018-04-11T09:58:55.856Z,65.87
2018-04-11T09:59:55.877Z,64.85
2018-04-11T10:00:55.906Z,65.23
2018-04-11T10:01:55.917Z,64.66
2018-04-11T10:02:55.941Z,63.70
2018-04-11T10:03:55.968Z,64.25
2018-04-11T10:04:55.995Z,62.81
2018-04-11T10:05:56.007Z,63.19
2018-04-11T10:06:56.080Z,62.14
2018-04-11T10:07:56.064Z,62.24
2018-04-11T10:08:56.075Z,60.93
2018-04-11T10:09:56.098Z,60.26
2018-04-11T10:10:56.112Z,60.64
2018-04-11T10:11:56.130Z,58.92
2018-04-11T10:12:56.161Z,58.73
2018-04-11T10:13:56.191Z,58.54
2018-04-11T10:14:56.222Z,58.06
2018-04-11T10:15:56.224Z,58.73
2018-04-11T10:16:56.252Z,60.35
2018-04-11T10:17:56.277Z,59.49
2018-04-11T10:18:56.295Z,59.49
2018-04-11T10:19:56.305Z,60.06
2018-04-11T10:20:56.338Z,60.55
2018-04-11T10:21:56.354Z,58.86
2018-04-11T10:22:56.374Z,58.73
2018-04-11T10:23:56.407Z,58.54
2018-04-11T10:24:56.428Z,58.44
2018-04-11T10:25:56.444Z,59.30
2018-04-11T10:26:56.464Z,58.44
2018-04-11T10:27:56.489Z,58.15
2018-04-11T10:28:56.502Z,58.25
2018-04-11T10:29:56.538Z,58.63
2018-04-11T10:30:56.557Z,58.44
2018-04-11T10:31:56.584Z,59.43
2018-04-11T10:32:56.599Z,60.48
2018-04-11T10:33:56.613Z,60.10
2018-04-11T10:34:56.642Z,60.58
2018-04-11T10:35:56.656Z,61.25
2018-04-11T10:36:56.719Z,62.20
2018-04-11T10:37:56.710Z,62.87
2018-04-11T10:38:56.726Z,63.26
2018-04-11T10:39:56.745Z,62.11
2018-04-11T10:40:56.778Z,61.54
2018-04-11T10:41:56.815Z,61.91
2018-04-11T10:42:56.813Z,62.30
2018-04-11T10:43:56.839Z,62.01
2018-04-11T10:44:56.874Z,60.77
2018-04-11T10:45:56.887Z,60.19
2018-04-11T10:46:56.901Z,59.62
2018-04-11T10:47:56.937Z,60.00
2018-04-11T10:48:56.949Z,59.91
2018-04-11T10:49:56.972Z,59.62
2018-04-11T10:50:57.000Z,59.72
2018-04-11T10:51:57.013Z,60.19
2018-04-11T10:52:57.037Z,60.00
2018-04-11T10:53:57.061Z,59.27
2018-04-11T10:54:57.089Z,57.99
2018-04-11T10:55:57.124Z,56.84
2018-04-11T10:56:57.154Z,56.17
2018-04-11T10:57:57.152Z,56.20
2018-04-11T10:58:57.169Z,56.08
2018-04-11T10:59:57.197Z,54.96
2018-04-11T11:00:57.221Z,54.00
2018-04-11T11:01:57.240Z,54.10
2018-04-11T11:02:57.265Z,53.04
2018-04-11T11:03:57.284Z,54.10
2018-04-11T11:04:57.308Z,54.48
2018-04-11T11:05:57.327Z,54.00
2018-04-11T11:06:57.344Z,54.00
2018-04-11T11:07:57.374Z,52.66
2018-04-11T11:08:57.395Z,52.75
2018-04-11T11:09:57.415Z,54.32
2018-04-11T11:10:57.455Z,56.04
2018-04-11T11:11:57.463Z,56.81
2018-04-11T11:12:57.567Z,57.76
2018-04-11T11:13:57.511Z,57.86
2018-04-11T11:14:57.536Z,57.86
2018-04-11T11:15:57.556Z,57.95
2018-04-11T11:16:57.578Z,58.15
2018-04-11T11:17:57.609Z,60.54
2018-04-11T11:18:57.621Z,60.06
2018-04-11T11:19:57.642Z,59.68
2018-04-11T11:20:57.666Z,60.16
2018-04-11T11:21:57.687Z,59.77
2018-04-11T11:22:57.712Z,59.58
2018-04-11T11:23:57.738Z,59.48
2018-04-11T11:24:57.761Z,58.81
2018-04-11T11:25:57.784Z,58.62
2018-04-11T11:26:57.803Z,59.68
2018-04-11T11:27:57.828Z,60.28
2018-04-11T11:28:57.850Z,59.33
2018-04-11T11:29:57.875Z,59.80
2018-04-11T11:30:57.978Z,58.65
2018-04-11T11:31:57.919Z,56.07
2018-04-11T11:32:57.940Z,56.83
2018-04-11T11:33:57.966Z,57.43
2018-04-11T11:34:57.983Z,57.72
2018-04-11T11:35:58.001Z,56.19
2018-04-11T11:36:58.032Z,56.00
2018-04-11T11:37:58.052Z,55.58
2018-04-11T11:38:58.073Z,55.80
2018-04-11T11:39:58.095Z,56.09
2018-04-11T11:40:58.126Z,55.80
2018-04-11T11:41:58.148Z,55.13
2018-04-11T11:42:58.167Z,55.13
2018-04-11T11:43:58.186Z,54.30
2018-04-11T11:44:58.215Z,54.01
2018-04-11T11:45:58.268Z,53.05
2018-04-11T11:46:58.258Z,51.14
2018-04-11T11:47:58.289Z,51.42
2018-04-11T11:48:58.309Z,50.17
2018-04-11T11:49:58.330Z,50.46
2018-04-11T11:50:58.355Z,51.04
2018-04-11T11:51:58.384Z,51.32
2018-04-11T11:52:58.399Z,49.62
2018-04-11T11:53:58.422Z,49.02
2018-04-11T11:54:58.451Z,49.21
2018-04-11T11:55:58.467Z,48.25
2018-04-11T11:56:58.500Z,48.25
2018-04-11T11:57:58.530Z,48.83
2018-04-11T11:58:58.554Z,49.33
2018-04-11T11:59:58.564Z,49.69
2018-04-11T12:00:58.590Z,49.79
2018-04-11T12:01:58.657Z,50.46
2018-04-11T12:02:58.685Z,50.20
2018-04-11T12:03:58.659Z,50.29
2018-04-11T12:04:58.702Z,50.68
2018-04-11T12:05:58.717Z,50.99
2018-04-11T12:06:58.730Z,50.90
2018-04-11T12:07:58.815Z,50.80
2018-04-11T12:08:58.783Z,50.23
2018-04-11T12:09:58.807Z,48.97
2018-04-11T12:10:58.827Z,49.07
2018-04-11T12:11:58.868Z,49.07
2018-04-11T12:12:58.875Z,48.97
2018-04-11T12:13:58.903Z,47.92
2018-04-11T12:14:58.920Z,47.92
2018-04-11T12:15:58.952Z,47.92
2018-04-11T12:16:58.973Z,47.27
2018-04-11T12:17:59.000Z,46.48
2018-04-11T12:18:59.023Z,46.09
2018-04-11T12:19:59.057Z,45.81
2018-04-11T12:20:59.066Z,46.48
2018-04-11T12:21:59.093Z,45.83
2018-04-11T12:22:59.119Z,45.32
2018-04-11T12:23:59.144Z,44.58
2018-04-11T12:24:59.164Z,43.81
2018-04-11T12:25:59.196Z,43.33
2018-04-11T12:26:59.212Z,42.66
2018-04-11T12:27:59.246Z,42.47
2018-04-11T12:28:59.269Z,42.47
2018-04-11T12:29:59.289Z,42.47
2018-04-11T12:30:59.314Z,41.60
2018-04-11T12:31:59.378Z,40.95
2018-04-11T12:32:59.369Z,40.37
2018-04-11T12:33:59.389Z,39.24
2018-04-11T12:34:59.411Z,38.47
2018-04-11T12:35:59.437Z,38.28
2018-04-11T12:36:59.468Z,38.10
2018-04-11T12:37:59.489Z,37.81
2018-04-11T12:38:59.597Z,37.64
2018-04-11T12:39:59.538Z,37.34
2018-04-11T12:40:59.572Z,37.02
2018-04-11T12:41:59.587Z,36.95
2018-04-11T12:42:59.614Z,36.10
2018-04-11T12:43:59.639Z,35.81
2018-04-11T12:44:59.664Z,35.04
2018-04-11T12:45:59.701Z,34.27
2018-04-11T12:46:59.714Z,32.75
2018-04-11T12:47:59.744Z,31.88
2018-04-11T12:48:59.773Z,32.56
2018-04-11T12:49:59.792Z,33.42
2018-04-11T12:50:59.826Z,32.29
2018-04-11T12:51:59.848Z,31.52
2018-04-11T12:52:59.878Z,31.72